createdAt,value
2019-01-26T00:04:00.222Z,95203.00
2019-01-26T00:06:49.747Z,95201.00
2019-01-26T00:09:32.172Z,95201.00
2019-01-26T00:12:21.698Z,95207.00
2019-01-26T00:15:03.966Z,95201.00
2019-01-26T00:20:56.522Z,95190.00
2019-01-26T00:23:46.413Z,95183.00
2019-01-26T00:26:28.843Z,95192.00
2019-01-26T00:29:18.339Z,95169.00
2019-01-26T00:32:00.627Z,95187.00
2019-01-26T00:34:50.174Z,95178.00
2019-01-26T00:37:32.860Z,95172.00
2019-01-26T00:40:22.392Z,95189.00
2019-01-26T00:43:05.051Z,95180.00
2019-01-26T00:49:02.311Z,95178.00
2019-01-26T00:54:53.157Z,95179.00
2019-01-26T00:57:35.094Z,95179.00
2019-01-26T01:03:32.332Z,95171.00
2019-01-26T01:06:25.905Z,95176.00
2019-01-26T01:09:07.761Z,95168.00
2019-01-26T01:11:57.265Z,95153.00
2019-01-26T01:14:39.577Z,95148.00
2019-01-26T01:17:29.589Z,95133.00
2019-01-26T01:20:11.606Z,95126.00
2019-01-26T01:23:20.025Z,95116.00
2019-01-26T01:26:10.016Z,95128.00
2019-01-26T01:28:54.205Z,95111.00
2019-01-26T01:31:35.887Z,95113.00
2019-01-26T01:34:25.430Z,95117.00
2019-01-26T01:37:07.326Z,95115.00
2019-01-26T01:43:03.960Z,95104.00
2019-01-26T01:45:53.472Z,95097.00
2019-01-26T01:48:43.025Z,95092.00
2019-01-26T01:51:32.558Z,95090.00
2019-01-26T01:54:17.964Z,95081.00
2019-01-26T01:57:07.467Z,95087.00
2019-01-26T01:59:49.912Z,95087.00
2019-01-26T02:02:32.146Z,95092.00
2019-01-26T02:05:21.756Z,95083.00
2019-01-26T02:08:04.054Z,95075.00
2019-01-26T02:14:07.512Z,95079.00
2019-01-26T02:16:50.202Z,95083.00
2019-01-26T02:19:39.844Z,95080.00
2019-01-26T02:22:22.108Z,95076.00
2019-01-26T02:25:11.648Z,95056.00
2019-01-26T02:27:53.804Z,95059.00
2019-01-26T02:30:43.437Z,95051.00
2019-01-26T02:33:26.011Z,95035.00
2019-01-26T02:36:15.679Z,95036.00
2019-01-26T02:38:58.339Z,95043.00
2019-01-26T02:41:47.859Z,95041.00
2019-01-26T02:44:29.923Z,95029.00
2019-01-26T02:47:19.431Z,95016.00
2019-01-26T02:50:49.913Z,95012.00
2019-01-26T02:56:33.362Z,95008.00
2019-01-26T02:59:22.950Z,95002.00
2019-01-26T03:02:12.465Z,95001.00
2019-01-26T03:04:54.824Z,95002.00
2019-01-26T03:08:03.340Z,94995.00
2019-01-26T03:10:45.430Z,95001.00
2019-01-26T03:13:34.952Z,94996.00
2019-01-26T03:16:17.234Z,95009.00
2019-01-26T03:19:06.769Z,94984.00
2019-01-26T03:21:48.991Z,94996.00
2019-01-26T03:24:38.535Z,94990.00
2019-01-26T03:27:20.725Z,94990.00
2019-01-26T03:33:39.313Z,94997.00
2019-01-26T03:36:28.833Z,94990.00
2019-01-26T03:39:11.361Z,94995.00
2019-01-26T03:42:19.862Z,94994.00
2019-01-26T03:45:02.212Z,94978.00
2019-01-26T03:48:10.648Z,94971.00
2019-01-26T03:50:55.027Z,94981.00
2019-01-26T03:53:44.593Z,94972.00
2019-01-26T03:56:34.134Z,94977.00
2019-01-26T03:59:16.480Z,94965.00
2019-01-26T04:02:06.013Z,94956.00
2019-01-26T04:04:48.500Z,94972.00
2019-01-26T04:10:46.312Z,94955.00
2019-01-26T04:13:35.820Z,94940.00
2019-01-26T04:16:25.366Z,94940.00
2019-01-26T04:19:09.561Z,94937.00
2019-01-26T04:21:59.058Z,94930.00
2019-01-26T04:24:41.333Z,94929.00
2019-01-26T04:27:30.839Z,94926.00
2019-01-26T04:30:14.318Z,94921.00
2019-01-26T04:33:23.188Z,94929.00
2019-01-26T04:36:06.371Z,94929.00
2019-01-26T04:38:56.063Z,94921.00
2019-01-26T04:41:38.274Z,94922.00
2019-01-26T04:47:34.738Z,94908.00
2019-01-26T04:50:24.271Z,94902.00
2019-01-26T04:53:13.777Z,94924.00
2019-01-26T04:55:56.022Z,94914.00
2019-01-26T04:59:04.444Z,94899.00
2019-01-26T05:01:47.349Z,94913.00
2019-01-26T05:04:36.828Z,94912.00
2019-01-26T05:07:18.964Z,94901.00
2019-01-26T05:13:36.781Z,94909.00
2019-01-26T05:19:27.342Z,94888.00
2019-01-26T05:22:09.625Z,94891.00
2019-01-26T05:25:18.051Z,94875.00
2019-01-26T05:28:00.518Z,94887.00
2019-01-26T05:30:49.986Z,94884.00
2019-01-26T05:40:00.566Z,94868.00
2019-01-26T05:42:50.072Z,94874.00
2019-01-26T05:45:32.498Z,94882.00
2019-01-26T05:48:21.978Z,94869.00
2019-01-26T05:54:09.178Z,94864.00
2019-01-26T05:56:51.730Z,94871.00
2019-01-26T06:00:00.233Z,94870.00
2019-01-26T06:02:42.736Z,94863.00
2019-01-26T06:05:32.299Z,94868.00
2019-01-26T06:08:14.848Z,94873.00
2019-01-26T06:14:13.218Z,94860.00
2019-01-26T06:17:08.372Z,94873.00
2019-01-26T06:19:51.761Z,94859.00
2019-01-26T06:28:57.594Z,94871.00
2019-01-26T06:31:40.394Z,94861.00
2019-01-26T06:37:36.359Z,94860.00
2019-01-26T06:40:25.923Z,94858.00
2019-01-26T06:46:35.743Z,94855.00
2019-01-26T06:49:17.702Z,94858.00
2019-01-26T06:52:26.695Z,94859.00
2019-01-26T06:55:09.396Z,94859.00
2019-01-26T06:57:58.926Z,94861.00
2019-01-26T07:00:43.398Z,94866.00
2019-01-26T07:03:33.219Z,94867.00
2019-01-26T07:06:36.721Z,94887.00
2019-01-26T07:09:19.371Z,94873.00
2019-01-26T07:12:27.771Z,94876.00
2019-01-26T07:21:22.082Z,94866.00
2019-01-26T07:24:11.648Z,94871.00
2019-01-26T07:26:53.972Z,94869.00
2019-01-26T07:32:57.569Z,94867.00
2019-01-26T07:35:39.919Z,94880.00
2019-01-26T07:41:38.095Z,94870.00
2019-01-26T07:44:27.662Z,94869.00
2019-01-26T07:47:10.282Z,94874.00
2019-01-26T07:49:59.820Z,94877.00
2019-01-26T07:52:42.072Z,94864.00
2019-01-26T07:58:32.771Z,94875.00
2019-01-26T08:01:17.103Z,94872.00
2019-01-26T08:04:06.943Z,94863.00
2019-01-26T08:06:49.247Z,94869.00
2019-01-26T08:09:41.119Z,94872.00
2019-01-26T08:12:30.677Z,94864.00
2019-01-26T08:15:14.061Z,94877.00
2019-01-26T08:21:11.680Z,94878.00
2019-01-26T08:24:01.217Z,94861.00
2019-01-26T08:26:45.042Z,94884.00
2019-01-26T08:29:34.890Z,94869.00
2019-01-26T08:32:17.356Z,94892.00
2019-01-26T08:38:00.110Z,94884.00
2019-01-26T08:40:51.911Z,94869.00
2019-01-26T08:43:41.452Z,94893.00
2019-01-26T08:46:23.949Z,94881.00
2019-01-26T08:49:13.649Z,94886.00
2019-01-26T08:51:55.988Z,94888.00
2019-01-26T08:54:45.744Z,94886.00
2019-01-26T08:57:28.404Z,94885.00
2019-01-26T09:04:08.047Z,94893.00
2019-01-26T09:07:00.908Z,94883.00
2019-01-26T09:09:45.099Z,94894.00
2019-01-26T09:12:37.503Z,94875.00
2019-01-26T09:15:27.464Z,94870.00
2019-01-26T09:18:10.062Z,94881.00
2019-01-26T09:20:59.681Z,94887.00
2019-01-26T09:23:41.777Z,94883.00
2019-01-26T09:29:23.455Z,94875.00
2019-01-26T09:32:13.058Z,94872.00
2019-01-26T09:34:57.837Z,94888.00
2019-01-26T09:37:47.353Z,94881.00
2019-01-26T09:40:32.443Z,94891.00
2019-01-26T09:46:52.009Z,94879.00
2019-01-26T09:49:55.563Z,94886.00
2019-01-26T09:52:45.158Z,94877.00
2019-01-26T09:55:27.160Z,94889.00
2019-01-26T09:58:09.338Z,94892.00
2019-01-26T10:04:08.263Z,94901.00
2019-01-26T10:06:57.924Z,94892.00
2019-01-26T10:09:39.842Z,94885.00
2019-01-26T10:18:31.978Z,94902.00
2019-01-26T10:21:15.618Z,94893.00
2019-01-26T10:24:05.192Z,94894.00
2019-01-26T10:26:47.722Z,94897.00
2019-01-26T10:32:32.767Z,94894.00
2019-01-26T10:38:25.073Z,94890.00
2019-01-26T10:41:33.448Z,94871.00
2019-01-26T10:44:21.179Z,94864.00
2019-01-26T10:47:10.703Z,94866.00
2019-01-26T10:49:52.728Z,94844.00
2019-01-26T10:52:42.261Z,94862.00
2019-01-26T10:55:31.781Z,94855.00
2019-01-26T10:58:15.306Z,94847.00
2019-01-26T11:04:12.479Z,94849.00
2019-01-26T11:10:04.946Z,94842.00
2019-01-26T11:12:47.598Z,94845.00
2019-01-26T11:18:45.148Z,94832.00
2019-01-26T11:21:34.724Z,94836.00
2019-01-26T11:24:16.780Z,94824.00
2019-01-26T11:30:14.583Z,94826.00
2019-01-26T11:36:11.919Z,94812.00
2019-01-26T11:39:01.553Z,94809.00
2019-01-26T11:41:51.144Z,94806.00
2019-01-26T11:44:33.674Z,94807.00
2019-01-26T11:47:23.230Z,94813.00
2019-01-26T11:50:07.944Z,94800.00
2019-01-26T11:56:32.311Z,94776.00
2019-01-26T11:59:15.860Z,94785.00
2019-01-26T12:08:00.733Z,94755.00
2019-01-26T12:10:45.286Z,94762.00
2019-01-26T12:13:33.536Z,94762.00
2019-01-26T12:16:26.861Z,94754.00
2019-01-26T12:19:07.154Z,94731.00
2019-01-26T12:21:49.493Z,94733.00
2019-01-26T12:27:44.038Z,94734.00
2019-01-26T12:30:26.625Z,94725.00
2019-01-26T12:33:16.210Z,94715.00
2019-01-26T12:35:58.851Z,94729.00
2019-01-26T12:38:48.372Z,94720.00
2019-01-26T12:41:31.349Z,94713.00
2019-01-26T12:44:13.348Z,94719.00
2019-01-26T12:50:16.680Z,94702.00
2019-01-26T12:53:03.295Z,94704.00
2019-01-26T12:58:55.567Z,94691.00
2019-01-26T13:01:45.961Z,94700.00
2019-01-26T13:04:28.117Z,94693.00
2019-01-26T13:10:27.227Z,94700.00
2019-01-26T13:13:16.869Z,94702.00
2019-01-26T13:16:06.585Z,94706.00
2019-01-26T13:18:49.539Z,94702.00
2019-01-26T13:21:39.119Z,94695.00
2019-01-26T13:24:23.728Z,94694.00
2019-01-26T13:27:13.425Z,94708.00
2019-01-26T13:29:58.162Z,94699.00
2019-01-26T13:35:40.988Z,94702.00
2019-01-26T13:38:52.876Z,94684.00
2019-01-26T13:42:01.318Z,94703.00
2019-01-26T13:44:43.253Z,94697.00
2019-01-26T13:50:40.708Z,94697.00
2019-01-26T14:02:51.032Z,94698.00
2019-01-26T14:08:44.959Z,94704.00
2019-01-26T14:11:34.776Z,94701.00
2019-01-26T14:14:16.887Z,94705.00
2019-01-26T14:17:06.555Z,94709.00
2019-01-26T14:19:51.379Z,94707.00
2019-01-26T14:22:40.431Z,94706.00
2019-01-26T14:25:23.475Z,94712.00
2019-01-26T14:28:12.982Z,94700.00
2019-01-26T14:30:59.573Z,94698.00
2019-01-26T14:34:08.041Z,94699.00
2019-01-26T14:36:50.391Z,94704.00
2019-01-26T14:39:40.135Z,94692.00
2019-01-26T14:42:22.972Z,94697.00
2019-01-26T14:45:05.813Z,94694.00
2019-01-26T14:47:55.403Z,94693.00
2019-01-26T14:50:38.061Z,94692.00
2019-01-26T14:59:45.531Z,94697.00
2019-01-26T15:02:28.108Z,94703.00
2019-01-26T15:05:17.615Z,94695.00
2019-01-26T15:07:59.582Z,94688.00
2019-01-26T15:10:49.082Z,94679.00
2019-01-26T15:13:31.032Z,94683.00
2019-01-26T15:16:20.590Z,94688.00
2019-01-26T15:19:03.202Z,94676.00
2019-01-26T15:25:01.095Z,94671.00
2019-01-26T15:30:52.963Z,94656.00
2019-01-26T15:33:42.498Z,94670.00
2019-01-26T15:36:24.450Z,94661.00
2019-01-26T15:39:13.963Z,94664.00
2019-01-26T15:41:56.663Z,94671.00
2019-01-26T15:47:53.857Z,94665.00
2019-01-26T15:53:46.373Z,94660.00
2019-01-26T15:56:29.781Z,94666.00
2019-01-26T15:59:11.606Z,94653.00
2019-01-26T16:02:01.620Z,94654.00
2019-01-26T16:04:44.458Z,94655.00
2019-01-26T16:10:42.158Z,94652.00
2019-01-26T16:13:24.297Z,94657.00
2019-01-26T16:16:13.853Z,94651.00
2019-01-26T16:19:03.291Z,94657.00
2019-01-26T16:21:45.796Z,94650.00
2019-01-26T16:27:43.366Z,94645.00
2019-01-26T16:43:21.846Z,94640.00
2019-01-26T16:46:11.414Z,94637.00
2019-01-26T16:58:08.426Z,94623.00
2019-01-26T17:00:54.251Z,94625.00
2019-01-26T17:03:43.838Z,94625.00
2019-01-26T17:06:33.359Z,94624.00
2019-01-26T17:09:15.946Z,94622.00
2019-01-26T17:12:05.533Z,94626.00
2019-01-26T17:14:49.593Z,94622.00
2019-01-26T17:17:39.565Z,94618.00
2019-01-26T17:20:24.483Z,94613.00
2019-01-26T17:23:33.914Z,94615.00
2019-01-26T17:26:15.860Z,94609.00
2019-01-26T17:32:12.729Z,94607.00
2019-01-26T17:35:02.472Z,94608.00
2019-01-26T17:37:51.985Z,94606.00
2019-01-26T17:40:34.087Z,94600.00
2019-01-26T17:43:23.943Z,94586.00
2019-01-26T17:46:06.478Z,94581.00
2019-01-26T17:51:49.476Z,94582.00
2019-01-26T17:57:45.079Z,94582.00
2019-01-26T18:03:32.468Z,94567.00
2019-01-26T18:12:42.011Z,94555.00
2019-01-26T18:18:33.154Z,94561.00
2019-01-26T18:21:15.000Z,94550.00
2019-01-26T18:24:44.641Z,94542.00
2019-01-26T18:27:27.837Z,94547.00
2019-01-26T18:30:11.231Z,94543.00
2019-01-26T18:36:10.756Z,94544.00
2019-01-26T18:38:56.894Z,94541.00
2019-01-26T18:41:46.518Z,94537.00
2019-01-26T18:44:29.273Z,94534.00
2019-01-26T18:50:23.498Z,94543.00
2019-01-26T18:53:06.294Z,94524.00
2019-01-26T18:55:55.865Z,94514.00
2019-01-26T18:58:38.245Z,94525.00
2019-01-26T19:04:38.499Z,94527.00
2019-01-26T19:10:33.844Z,94514.00
2019-01-26T19:13:16.567Z,94515.00
2019-01-26T19:16:06.195Z,94523.00
2019-01-26T19:18:48.846Z,94510.00
2019-01-26T19:24:35.116Z,94512.00
2019-01-26T19:27:18.184Z,94507.00
2019-01-26T19:33:10.688Z,94493.00
2019-01-26T19:35:53.207Z,94497.00
2019-01-26T19:38:42.800Z,94494.00
2019-01-26T19:41:26.341Z,94480.00
2019-01-26T19:44:10.499Z,94475.00
2019-01-26T19:47:19.165Z,94479.00
2019-01-26T19:50:04.133Z,94470.00
2019-01-26T19:56:03.948Z,94470.00
2019-01-26T19:58:54.231Z,94460.00
2019-01-26T20:01:40.083Z,94461.00
2019-01-26T20:04:29.667Z,94468.00
2019-01-26T20:07:12.988Z,94454.00
2019-01-26T20:10:02.575Z,94467.00
2019-01-26T20:12:45.298Z,94455.00
2019-01-26T20:15:34.840Z,94458.00
2019-01-26T20:18:17.374Z,94450.00
2019-01-26T20:24:00.240Z,94448.00
2019-01-26T20:26:50.299Z,94450.00
2019-01-26T20:29:32.869Z,94455.00
2019-01-26T20:32:22.826Z,94442.00
2019-01-26T20:35:05.623Z,94435.00
2019-01-26T20:41:04.682Z,94437.00
2019-01-26T20:46:55.652Z,94424.00
2019-01-26T20:50:27.154Z,94422.00
2019-01-26T20:53:09.749Z,94426.00
2019-01-26T20:59:07.321Z,94421.00
2019-01-26T21:02:16.248Z,94418.00
2019-01-26T21:04:59.088Z,94404.00
2019-01-26T21:08:07.715Z,94413.00
2019-01-26T21:10:51.142Z,94400.00
2019-01-26T21:13:40.715Z,94400.00
2019-01-26T21:16:23.451Z,94393.00
2019-01-26T21:25:32.552Z,94389.00
2019-01-26T21:28:22.201Z,94383.00
2019-01-26T21:31:11.757Z,94379.00
2019-01-26T21:33:54.208Z,94374.00
2019-01-26T21:39:51.937Z,94382.00
2019-01-26T21:42:41.644Z,94381.00
2019-01-26T21:45:26.633Z,94376.00
2019-01-26T21:51:24.735Z,94378.00
2019-01-26T21:57:20.496Z,94365.00
2019-01-26T22:00:04.963Z,94368.00
2019-01-26T22:02:57.014Z,94362.00
2019-01-26T22:05:39.658Z,94351.00
2019-01-26T22:08:48.046Z,94345.00
2019-01-26T22:11:30.115Z,94343.00
2019-01-26T22:14:19.646Z,94342.00
2019-01-26T22:17:03.151Z,94341.00
2019-01-26T22:20:16.791Z,94329.00
2019-01-26T22:22:59.367Z,94337.00
2019-01-26T22:28:55.969Z,94321.00
2019-01-26T22:35:06.410Z,94313.00
2019-01-26T22:37:48.435Z,94313.00
2019-01-26T22:40:38.205Z,94301.00
2019-01-26T22:43:20.596Z,94298.00
2019-01-26T22:46:10.150Z,94294.00
2019-01-26T22:48:52.676Z,94296.00
2019-01-26T22:51:42.204Z,94293.00
2019-01-26T22:54:31.785Z,94287.00
2019-01-26T22:57:13.542Z,94265.00
2019-01-26T23:02:50.973Z,94268.00
2019-01-26T23:06:18.599Z,94264.00
2019-01-26T23:08:59.920Z,94260.00
2019-01-26T23:15:45.005Z,94252.00
2019-01-26T23:18:46.315Z,94239.00
2019-01-26T23:22:28.078Z,94236.00
2019-01-26T23:25:11.226Z,94230.00
2019-01-26T23:28:22.616Z,94228.00
2019-01-26T23:31:23.899Z,94214.00
2019-01-26T23:34:13.413Z,94221.00
2019-01-26T23:36:56.048Z,94204.00
2019-01-26T23:40:04.536Z,94206.00
2019-01-26T23:42:46.744Z,94197.00
2019-01-26T23:45:36.353Z,94188.00
2019-01-26T23:48:18.935Z,94176.00
2019-01-26T23:54:00.857Z,94164.00
2019-01-26T23:56:42.850Z,94159.00
2019-01-26T23:59:32.408Z,94166.00
